Peterstown, West Virginia
Current Conditions -  °F | °C
As of 5:15 AM on Sunday 26 Oct 2014 (Local Time) from KPSK Reporting Station
Clear Clear  
Wind Chill: 61°   Ceiling: Unl
Heat Index: 61°   Visibility: 10mi
Dew Point: 48°   Wind: 17mph
Humidity: 63%   Direction: 310°NW
Pressure: 29.88"   Gusts: 28mph
Location:  37.4°N, 80.8°W
Report Text: KPSK 260915Z AUTO 31015G24KT 10SM CLR 16/09 A2988 RMK AO2
Loading
Personal Weather Stations






























Interactive Weather Map
Tropical Storm Tracking
New forecast layout! Learn more

10-Day Weather Forecast

Advertisements
Track Severe Weather on mobile